M I D A S
Marine Information and Data Acquisition System
Tripno 1449 of the Zeeleeuw from 2008-04-01 04:05:47 to 2008-04-01 08:47:36
Back to CruiseResearch ActivitiesStationsMapUnderway DataData graphs

EquipmentUnitsComment
TimeDGPSUTC
LatitudeDGPSDM.mWGS84
LongitudeDGPSDM.mWGS84
HeadingGyrodeg 
SOGDGPSknotsSpeed over ground
COGDGPSdegCourse over ground
DepthEcho soundermeters200 kHz
Missing or incorrect values are displayed as -999
Navigation data collected by the RV Zeeleeuw from 2008-04-01 03:59:59 to 2008-04-01 08:56:44
Time Latitude Longitude Heading SOG COG Depth
2008-04-01 04:01:04 51°13.644 2°55.998 122.9 -999 129 6.7
2008-04-01 04:02:03 51°13.643 2°55.999 124.7 -999 145 6.7
2008-04-01 04:03:04 51°13.643 2°55.998 124.9 0.1 196 6.8
2008-04-01 04:04:03 51°13.643 2°55.998 125.2 -999 314 6.7
2008-04-01 04:05:04 51°13.644 2°55.998 125.9 -999 162 6.7
2008-04-01 04:06:03 51°13.645 2°55.998 120.4 0.1 184 6.8
2008-04-01 04:07:04 51°13.644 2°55.997 111.6 0.2 285 6.9
2008-04-01 04:08:04 51°13.658 2°55.948 111 3.3 294 -999
2008-04-01 04:09:04 51°13.681 2°55.849 108.4 4.2 291 -999
2008-04-01 04:10:03 51°13.699 2°55.762 97.1 2.9 284 12.8
2008-04-01 04:11:03 51°13.704 2°55.711 78.2 0.8 287 15
2008-04-01 04:12:04 51°13.718 2°55.716 33 1.5 17 11.5
2008-04-01 04:13:03 51°13.753 2°55.705 336.3 2.8 332 10.4
2008-04-01 04:14:04 51°13.802 2°55.661 333.1 3.7 333 -999
2008-04-01 04:15:03 51°13.863 2°55.616 336 4.5 335 10.1
2008-04-01 04:16:04 51°13.934 2°55.56 334.6 4.9 335 -999
2008-04-01 04:17:03 51°14.007 2°55.505 333.8 5.1 334 10.8
2008-04-01 04:18:03 51°14.087 2°55.441 333.8 5.8 332 10.4
2008-04-01 04:19:05 51°14.199 2°55.339 330.8 8.6 329 4.7
2008-04-01 04:20:03 51°14.312 2°55.202 317.3 8.7 312 10.1
2008-04-01 04:21:04 51°14.403 2°55.012 302.6 8.8 299 10.3
2008-04-01 04:22:03 51°14.466 2°54.769 292.7 11.1 291 10.6
2008-04-01 04:23:04 51°14.538 2°54.467 288.6 12.5 286 10.3
2008-04-01 04:24:03 51°14.595 2°54.152 288 12.7 287 10.8
2008-04-01 04:25:04 51°14.655 2°53.825 284.5 12.6 283 10.6
2008-04-01 04:26:03 51°14.703 2°53.509 284.5 12.4 284 9.6
2008-04-01 04:27:04 51°14.754 2°53.184 285.4 12.4 284 9.3
2008-04-01 04:28:03 51°14.803 2°52.869 285.4 12.5 284 9.6
2008-04-01 04:29:03 51°14.848 2°52.545 282 12.5 280 9.8
2008-04-01 04:30:04 51°14.894 2°52.213 284.2 12.6 282 10.2
2008-04-01 04:31:03 51°14.936 2°51.892 283 12.6 281 10.8
2008-04-01 04:32:04 51°14.977 2°51.56 280.5 12.5 279 11.4
2008-04-01 04:33:04 51°15.018 2°51.233 285.5 12.6 286 11.8
2008-04-01 04:34:04 51°15.077 2°50.912 286.3 12.6 285 12.2
2008-04-01 04:35:04 51°15.135 2°50.591 288.8 12.6 288 12.5
2008-04-01 04:36:04 51°15.189 2°50.267 286.8 12.6 285 12.7
2008-04-01 04:37:04 51°15.243 2°49.944 286.4 12.5 285 12.8
2008-04-01 04:38:04 51°15.297 2°49.624 287.3 12.5 286 13.1
2008-04-01 04:39:04 51°15.354 2°49.304 286.7 12.5 286 13.1
2008-04-01 04:40:04 51°15.411 2°48.984 287.5 12.5 286 13
2008-04-01 04:41:04 51°15.467 2°48.667 287.2 12.3 285 11
2008-04-01 04:42:04 51°15.521 2°48.351 286.8 12.3 285 10.5
2008-04-01 04:43:04 51°15.576 2°48.035 287.3 12.4 286 11.3
2008-04-01 04:44:04 51°15.633 2°47.717 288.5 12.5 289 12.9
2008-04-01 04:45:04 51°15.71 2°47.406 292.7 12.6 291 14.9
2008-04-01 04:46:04 51°15.783 2°47.092 292.5 12.6 292 16.3
2008-04-01 04:47:04 51°15.858 2°46.779 291 12.6 291 17.1
2008-04-01 04:48:04 51°15.94 2°46.473 295.9 12.5 295 15.9
2008-04-01 04:49:04 51°16.021 2°46.171 293.9 12.3 293 12.9
2008-04-01 04:50:04 51°16.101 2°45.871 294.1 12.2 293 11.9
2008-04-01 04:51:04 51°16.189 2°45.58 299.7 12.2 299 11.1
2008-04-01 04:52:04 51°16.293 2°45.304 302 12.2 299 11.5
2008-04-01 04:53:04 51°16.403 2°45.031 306.9 12.2 305 11.4
2008-04-01 04:54:04 51°16.518 2°44.764 305 12.2 302 10.7
2008-04-01 04:55:04 51°16.629 2°44.491 305.3 12.2 303 12.9
2008-04-01 04:56:04 51°16.741 2°44.217 305.2 12.4 304 15.1
2008-04-01 04:57:04 51°16.854 2°43.942 305.4 12.4 304 15
2008-04-01 04:58:04 51°16.969 2°43.669 305.3 12.4 303 14.8
2008-04-01 04:59:04 51°17.083 2°43.394 304.7 12.4 303 14.6
2008-04-01 05:00:04 51°17.198 2°43.122 304.7 12.3 305 10.8
2008-04-01 05:01:04 51°17.317 2°42.857 308.9 12.2 309 10
2008-04-01 05:02:04 51°17.443 2°42.597 307.7 12.5 307 17.8
2008-04-01 05:03:04 51°17.567 2°42.33 305.6 12.5 305 23.7
2008-04-01 05:04:04 51°17.688 2°42.059 306.5 12.5 305 24.3
2008-04-01 05:05:04 51°17.808 2°41.787 305.6 12.5 305 24.5
2008-04-01 05:06:04 51°17.928 2°41.514 306.4 12.5 306 23.8
2008-04-01 05:07:04 51°18.049 2°41.244 306.3 12.5 306 22.5
2008-04-01 05:08:04 51°18.169 2°40.974 307 12.4 306 17.7
2008-04-01 05:09:04 51°18.291 2°40.707 306.7 12.5 305 19.7
2008-04-01 05:10:04 51°18.412 2°40.438 306.8 12.4 306 16.8
2008-04-01 05:11:04 51°18.533 2°40.17 305.8 12.6 306 24.1
2008-04-01 05:12:04 51°18.656 2°39.902 306.9 12.5 308 25.6
2008-04-01 05:13:04 51°18.778 2°39.633 306 12.5 306 25
2008-04-01 05:14:04 51°18.899 2°39.365 306.6 12.4 306 25.8
2008-04-01 05:15:04 51°19.019 2°39.097 306.2 12.4 306 27.9
2008-04-01 05:16:04 51°19.139 2°38.828 306.4 12.4 307 28.6
2008-04-01 05:17:04 51°19.26 2°38.559 306.3 12.4 306 27.8
2008-04-01 05:18:04 51°19.38 2°38.292 306.2 12.4 306 24.9
2008-04-01 05:19:04 51°19.502 2°38.025 306.2 12.4 306 22.8
2008-04-01 05:20:02 51°19.62 2°37.768 306 12.3 306 20.7
2008-04-01 05:21:00 51°19.737 2°37.511 306.4 12.4 306 23
2008-04-01 05:22:01 51°19.861 2°37.244 306 12 306 23.1
2008-04-01 05:23:00 51°19.973 2°37.012 312.7 8.5 311 22.7
2008-04-01 05:24:00 51°20.039 2°36.931 331.3 3.3 333 23.5
2008-04-01 05:25:01 51°20.081 2°36.904 328.9 2.3 337 24.6
2008-04-01 05:26:00 51°20.103 2°36.889 307.7 0.8 334 22.4
2008-04-01 05:27:01 51°20.112 2°36.895 297.8 0.7 63 22.6
2008-04-01 05:28:01 51°20.114 2°36.92 318 1 94 23.1
2008-04-01 05:29:00 51°20.112 2°36.944 329.4 0.9 97 23
2008-04-01 05:30:00 51°20.111 2°36.966 337.4 0.8 96 22.6
2008-04-01 05:31:01 51°20.114 2°36.986 345 1 26 21.8
2008-04-01 05:32:00 51°20.138 2°36.973 304 1.9 318 21.5
2008-04-01 05:33:01 51°20.151 2°36.925 265.9 2.1 276 23.1
2008-04-01 05:34:00 51°20.142 2°36.873 230 2.4 232 23.1
2008-04-01 05:35:00 51°20.115 2°36.854 191.6 1.2 180 22.9
2008-04-01 05:36:01 51°20.103 2°36.867 170 0.8 122 22
2008-04-01 05:37:00 51°20.099 2°36.89 153.6 0.9 93 21.3
2008-04-01 05:38:01 51°20.101 2°36.914 138.2 0.8 73 23.3
2008-04-01 05:39:01 51°20.108 2°36.936 126.1 0.9 58 24.6
2008-04-01 05:40:00 51°20.118 2°36.955 112.4 1 46 22.9
2008-04-01 05:41:01 51°20.129 2°36.973 105.1 0.9 45 22.4
2008-04-01 05:42:01 51°20.139 2°36.989 104 0.9 40 21.7
2008-04-01 05:43:00 51°20.151 2°37.005 105.5 0.9 41 22.9
2008-04-01 05:44:00 51°20.161 2°37.02 107.2 0.9 40 23
2008-04-01 05:45:01 51°20.172 2°37.035 107.3 0.8 39 23.1
2008-04-01 05:46:00 51°20.183 2°37.05 108.5 0.8 41 21.3
2008-04-01 05:47:01 51°20.193 2°37.066 110.8 0.9 40 22.7
2008-04-01 05:48:01 51°20.203 2°37.082 110.6 0.9 44 23.4
2008-04-01 05:49:00 51°20.214 2°37.098 110.2 0.9 51 23.3
2008-04-01 05:50:01 51°20.204 2°37.146 145.8 2.6 133 23.1
2008-04-01 05:51:01 51°20.161 2°37.164 199.3 2.8 194 23.4
2008-04-01 05:52:00 51°20.14 2°37.12 255.7 2 264 22.2
2008-04-01 05:53:00 51°20.142 2°37.074 258.3 1.4 273 22.8
2008-04-01 05:54:01 51°20.144 2°37.041 250.9 1 281 23
2008-04-01 05:55:00 51°20.146 2°37.02 244.2 0.7 285 22.9
2008-04-01 05:56:01 51°20.151 2°37.011 247.6 0.5 3 23
2008-04-01 05:57:02 51°20.163 2°37.015 262.7 0.9 15 -999
2008-04-01 05:58:03 51°20.177 2°37.024 280.4 1.1 28 23.4
2008-04-01 05:59:01 51°20.19 2°37.038 298.5 1 37 21.4
2008-04-01 06:00:01 51°20.202 2°37.055 308.3 0.9 42 22.8
2008-04-01 06:01:01 51°20.214 2°37.073 312 1 46 23.4
2008-04-01 06:02:01 51°20.227 2°37.092 311 1.1 41 23.6
2008-04-01 06:03:01 51°20.24 2°37.11 307.3 1.1 43 23.5
2008-04-01 06:04:01 51°20.252 2°37.126 303.2 1 20 23.9
2008-04-01 06:05:01 51°20.268 2°37.116 276.7 1.3 313 23.7
2008-04-01 06:06:01 51°20.274 2°37.084 247 1.3 267 24.1
2008-04-01 06:07:00 51°20.265 2°37.056 218.4 1.2 222 23.2
2008-04-01 06:08:01 51°20.252 2°37.044 209.2 0.5 191 22.8
2008-04-01 06:09:00 51°20.249 2°37.046 211.8 0.2 80 22.8
2008-04-01 06:10:01 51°20.252 2°37.052 219.7 0.3 41 22.4
2008-04-01 06:11:00 51°20.256 2°37.052 231.5 0.4 319 22.6
2008-04-01 06:12:01 51°20.259 2°37.039 238.9 0.7 276 22.9
2008-04-01 06:13:01 51°20.257 2°37.019 232.2 0.8 255 23.8
2008-04-01 06:14:01 51°20.251 2°37 222.7 0.7 237 23.7
2008-04-01 06:15:01 51°20.243 2°36.991 209.9 0.6 193 23.4
2008-04-01 06:16:01 51°20.235 2°36.992 201.7 0.5 150 23.2
2008-04-01 06:17:01 51°20.232 2°37.002 193 0.6 99 23.3
2008-04-01 06:18:00 51°20.234 2°37.025 178.6 1.1 72 23.3
2008-04-01 06:19:01 51°20.242 2°37.055 157.5 1.3 73 23
2008-04-01 06:20:00 51°20.233 2°37.093 165.3 1.8 127 24
2008-04-01 06:21:01 51°20.21 2°37.118 192.6 1.6 164 23.3
2008-04-01 06:22:01 51°20.193 2°37.118 224.1 0.5 204 23.8
2008-04-01 06:23:01 51°20.195 2°37.115 251.4 0.5 355 23.8
2008-04-01 06:24:01 51°20.206 2°37.11 259 0.7 336 23.7
2008-04-01 06:25:01 51°20.215 2°37.099 251 0.6 311 23.7
2008-04-01 06:26:01 51°20.219 2°37.087 237.3 0.4 281 23.9
2008-04-01 06:27:01 51°20.218 2°37.078 227.6 0.4 252 23.5
2008-04-01 06:28:01 51°20.214 2°37.067 226.4 0.5 234 23.8
2008-04-01 06:29:01 51°20.207 2°37.056 224.4 0.7 226 23.4
2008-04-01 06:30:01 51°20.198 2°37.045 222.4 0.8 216 22.4
2008-04-01 06:31:01 51°20.187 2°37.034 220.5 0.6 213 23.2
2008-04-01 06:32:01 51°20.185 2°37.035 224.8 0.2 48 23.4
2008-04-01 06:33:01 51°20.193 2°37.045 234 0.9 33 21.3
2008-04-01 06:34:01 51°20.208 2°37.064 257.5 1.2 42 23.2
2008-04-01 06:35:01 51°20.223 2°37.089 286 1.3 51 24
2008-04-01 06:36:01 51°20.239 2°37.113 302.8 1.4 27 23.6
2008-04-01 06:37:01 51°20.259 2°37.104 276.7 1.4 309 23.7
2008-04-01 06:38:01 51°20.265 2°37.069 243.7 1.1 267 24.1
2008-04-01 06:39:01 51°20.262 2°37.053 223.6 0.3 232 23.2
2008-04-01 06:40:01 51°20.257 2°37.052 215.1 0.3 156 22.8
2008-04-01 06:41:01 51°20.255 2°37.055 215.1 0.3 166 22.7
2008-04-01 06:42:00 51°20.247 2°37.056 213 0.6 183 22.9
2008-04-01 06:43:01 51°20.238 2°37.056 215.5 0.4 158 23.4
2008-04-01 06:44:01 51°20.236 2°37.057 222 0.1 134 23.5
2008-04-01 06:45:00 51°20.237 2°37.057 231.9 0.2 344 23.4
2008-04-01 06:46:01 51°20.241 2°37.054 236.6 0.4 339 23.4
2008-04-01 06:47:01 51°20.249 2°37.051 241.3 0.5 347 23.1
2008-04-01 06:48:01 51°20.257 2°37.047 244.2 0.5 345 22.5
2008-04-01 06:49:01 51°20.265 2°37.043 243.6 0.5 343 22.6
2008-04-01 06:50:01 51°20.273 2°37.036 243.8 0.5 306 22.7
2008-04-01 06:51:01 51°20.274 2°37.023 233.1 0.6 271 24
2008-04-01 06:52:00 51°20.272 2°37.012 221.6 0.4 227 24.3
2008-04-01 06:53:01 51°20.265 2°37.009 211.2 0.4 167 24.4
2008-04-01 06:54:01 51°20.259 2°37.016 202.4 0.5 137 24.3
2008-04-01 06:55:00 51°20.251 2°37.027 200.5 0.7 136 23.9
2008-04-01 06:56:01 51°20.243 2°37.038 206.7 0.6 147 24
2008-04-01 06:57:00 51°20.237 2°37.044 219.1 0.2 160 23.8
2008-04-01 06:58:01 51°20.237 2°37.04 236 0.4 293 24
2008-04-01 06:59:00 51°20.241 2°37.029 235.4 0.4 301 24.1
2008-04-01 07:00:01 51°20.243 2°37.022 227.8 0.2 281 23.9
2008-04-01 07:01:01 51°20.243 2°37.018 221.2 -999 179 24.1
2008-04-01 07:02:00 51°20.242 2°37.02 216.8 0.2 95 23.9
2008-04-01 07:03:01 51°20.241 2°37.025 214.7 0.2 133 23.9
2008-04-01 07:04:01 51°20.238 2°37.028 215.2 0.3 163 24
2008-04-01 07:05:01 51°20.233 2°37.026 218.1 0.3 205 23.7
2008-04-01 07:06:01 51°20.232 2°37.028 220.4 0.3 28 23.7
2008-04-01 07:07:01 51°20.244 2°37.037 236.5 1.1 24 23.9
2008-04-01 07:08:00 51°20.263 2°37.054 265 1.4 33 23.7
2008-04-01 07:09:01 51°20.284 2°37.078 286.2 1.4 38 24.3
2008-04-01 07:10:01 51°20.304 2°37.107 299.7 1.7 44 24.6
2008-04-01 07:11:01 51°20.323 2°37.139 307.5 1.6 51 23.6
2008-04-01 07:12:01 51°20.34 2°37.174 315.9 1.7 54 24.7
2008-04-01 07:13:01 51°20.366 2°37.192 313.6 2.1 358 23.1
2008-04-01 07:14:01 51°20.403 2°37.167 298.2 2.6 324 24.2
2008-04-01 07:15:00 51°20.434 2°37.115 286.2 2.5 312 24.4
2008-04-01 07:16:01 51°20.457 2°37.083 277.6 1.3 322 24
2008-04-01 07:17:01 51°20.471 2°37.059 255.3 1.2 290 23.6
2008-04-01 07:18:01 51°20.46 2°37.033 208.8 1.7 192 24.8
2008-04-01 07:19:01 51°20.415 2°37.046 184.8 3.4 171 24.5
2008-04-01 07:20:01 51°20.354 2°37.051 192.2 3.8 181 23.4
2008-04-01 07:21:01 51°20.288 2°37.04 198.6 4 190 23.6
2008-04-01 07:22:00 51°20.238 2°37.028 202.9 2.5 190 24.3
2008-04-01 07:23:01 51°20.201 2°37.015 208.9 1.8 196 22.3
2008-04-01 07:24:01 51°20.192 2°37.01 231.4 0.4 335 24.2
2008-04-01 07:25:01 51°20.204 2°37.011 254.7 1.1 14 22.4
2008-04-01 07:26:01 51°20.224 2°37.025 268.5 1.5 28 23.8
2008-04-01 07:27:01 51°20.246 2°37.045 280.1 1.6 32 23.8
2008-04-01 07:28:01 51°20.267 2°37.07 287.5 1.7 35 24.5
2008-04-01 07:29:01 51°20.289 2°37.098 292.4 1.7 39 24.6
2008-04-01 07:30:01 51°20.31 2°37.131 296 1.8 44 22.1
2008-04-01 07:31:01 51°20.332 2°37.165 299.1 1.9 45 24.6
2008-04-01 07:32:01 51°20.353 2°37.2 301.8 1.8 47 23.2
2008-04-01 07:33:01 51°20.375 2°37.236 304 1.8 47 24.2
2008-04-01 07:34:01 51°20.396 2°37.27 300 1.8 44 24.8
2008-04-01 07:35:01 51°20.418 2°37.304 294.6 1.8 43 24.7
2008-04-01 07:36:00 51°20.44 2°37.317 275.6 1.4 337 23.1
2008-04-01 07:37:01 51°20.442 2°37.284 227.5 1.4 229 24.5
2008-04-01 07:38:00 51°20.411 2°37.298 159.1 3.6 135 24.7
2008-04-01 07:39:01 51°20.333 2°37.391 158.9 7 148 24.6
2008-04-01 07:40:01 51°20.212 2°37.497 158.9 9 151 24.5
2008-04-01 07:41:00 51°20.099 2°37.664 141.6 9.6 135 24.1
2008-04-01 07:42:01 51°19.982 2°37.847 142.4 9.7 136 25
2008-04-01 07:43:00 51°19.869 2°38.026 142.2 9.7 135 24.1
2008-04-01 07:44:01 51°19.751 2°38.208 143.2 9.7 136 24.4
2008-04-01 07:45:00 51°19.637 2°38.386 142.9 9.7 137 25.1
2008-04-01 07:46:01 51°19.523 2°38.574 138.8 9.8 132 26.4
2008-04-01 07:47:00 51°19.421 2°38.772 134.9 9.9 127 29
2008-04-01 07:48:01 51°19.318 2°38.98 134.8 9.8 128 30
2008-04-01 07:49:01 51°19.218 2°39.185 135.3 9.7 128 30.2
2008-04-01 07:50:00 51°19.119 2°39.386 135 9.8 128 28.6
2008-04-01 07:51:01 51°19.017 2°39.593 134.7 9.7 129 26.5
2008-04-01 07:52:00 51°18.917 2°39.792 134.9 9.8 129 25.7
2008-04-01 07:53:01 51°18.813 2°39.999 134.9 9.8 129 25.4
2008-04-01 07:54:01 51°18.71 2°40.204 134.9 9.8 128 25
2008-04-01 07:55:01 51°18.608 2°40.41 135.3 9.9 128 16.5
2008-04-01 07:56:01 51°18.505 2°40.62 134.9 10.1 127 14.3
2008-04-01 07:57:01 51°18.4 2°40.826 135.2 9.9 128 17.2
2008-04-01 07:58:00 51°18.298 2°41.031 135.5 10 129 20.5
2008-04-01 07:59:00 51°18.191 2°41.241 135.3 10 129 20.7
2008-04-01 08:00:01 51°18.084 2°41.445 134.6 9.8 129 23.8
2008-04-01 08:01:00 51°17.982 2°41.642 135.3 9.8 130 25.2
2008-04-01 08:02:01 51°17.877 2°41.847 135.6 9.8 129 25.7
2008-04-01 08:03:00 51°17.778 2°42.047 134.6 9.9 128 25.8
2008-04-01 08:04:00 51°17.676 2°42.251 135.3 10 128 25.4
2008-04-01 08:05:00 51°17.566 2°42.467 134.9 10.7 129 24.4
2008-04-01 08:06:00 51°17.455 2°42.686 135.4 10.8 129 16.7
2008-04-01 08:07:00 51°17.346 2°42.918 130.5 11.5 124 12.1
2008-04-01 08:08:01 51°17.23 2°43.176 129.4 11.8 125 13.6
2008-04-01 08:09:01 51°17.116 2°43.426 129.8 11.7 126 15.9
2008-04-01 08:10:01 51°17 2°43.674 129.8 11.5 127 16.2
2008-04-01 08:11:01 51°16.886 2°43.922 130.6 11.6 127 17.1
2008-04-01 08:12:00 51°16.775 2°44.164 130.9 11.4 127 16.7
2008-04-01 08:13:00 51°16.664 2°44.414 129.1 11.5 126 15.6
2008-04-01 08:14:00 51°16.553 2°44.661 130.9 11.5 125 13.2
2008-04-01 08:15:01 51°16.44 2°44.912 130.2 11.5 126 12.5
2008-04-01 08:16:01 51°16.335 2°45.165 127.3 11.6 121 12.6
2008-04-01 08:17:01 51°16.232 2°45.421 126.6 11.4 123 11.9
2008-04-01 08:18:01 51°16.126 2°45.678 127.7 11.6 122 13.1
2008-04-01 08:19:01 51°16.029 2°45.945 119.9 11.8 115 13.6
2008-04-01 08:20:01 51°15.954 2°46.237 114.6 12 109 16.4
2008-04-01 08:21:01 51°15.888 2°46.541 113.3 12.2 109 18
2008-04-01 08:22:01 51°15.828 2°46.855 110.2 12.4 105 18.6
2008-04-01 08:23:00 51°15.774 2°47.167 107.9 12.5 103 17.5
2008-04-01 08:24:01 51°15.721 2°47.489 108.7 12.3 104 16.3
2008-04-01 08:25:01 51°15.668 2°47.805 109.3 12.2 106 14.7
2008-04-01 08:26:00 51°15.615 2°48.115 109.1 12.4 105 13.1
2008-04-01 08:27:01 51°15.559 2°48.432 110 12.2 107 12.2
2008-04-01 08:28:00 51°15.518 2°48.751 104 12.6 102 12.3
2008-04-01 08:29:01 51°15.477 2°49.083 104.9 12.6 101 14.3
2008-04-01 08:30:00 51°15.451 2°49.412 100.4 12.7 98 14.7
2008-04-01 08:31:00 51°15.424 2°49.747 101.9 12.9 98 14.6
2008-04-01 08:32:01 51°15.394 2°50.085 101.6 12.6 98 14.6
2008-04-01 08:33:00 51°15.367 2°50.411 101.2 12.6 98 14.4
2008-04-01 08:34:01 51°15.341 2°50.748 100.6 12.7 96 14.3
2008-04-01 08:35:00 51°15.322 2°51.079 99.3 12.8 95 14.2
2008-04-01 08:36:01 51°15.302 2°51.422 99.5 12.8 96 13.8
2008-04-01 08:37:00 51°15.274 2°51.762 105.9 13.1 103 13.6
2008-04-01 08:38:01 51°15.211 2°52.099 114.3 13 112 13
2008-04-01 08:39:00 51°15.13 2°52.409 117.5 12.8 112 12.4
2008-04-01 08:40:01 51°15.044 2°52.728 117.3 12.9 113 12.2
2008-04-01 08:41:01 51°14.96 2°53.044 116.8 12.9 113 12.2
2008-04-01 08:42:00 51°14.877 2°53.35 117.2 12.9 113 11.9
2008-04-01 08:43:01 51°14.787 2°53.659 116.9 12.6 114 11.8
2008-04-01 08:44:00 51°14.7 2°53.961 118.7 12.8 114 12.3
2008-04-01 08:45:01 51°14.612 2°54.276 118.9 12.9 115 12.4
2008-04-01 08:46:00 51°14.525 2°54.581 119.3 12.9 116 12.1
2008-04-01 08:47:01 51°14.426 2°54.892 122.4 12.9 118 12.2
2008-04-01 08:48:01 51°14.308 2°55.164 127.6 12.2 128 11.8
2008-04-01 08:49:01 51°14.164 2°55.371 146.2 10.2 148 12.4
2008-04-01 08:50:01 51°14.046 2°55.469 153.4 7.6 153 12.4
2008-04-01 08:51:04 51°13.936 2°55.553 154.8 6.4 154 12.2
2008-04-01 08:52:04 51°13.842 2°55.62 154 5.9 153 11.8
2008-04-01 08:53:04 51°13.763 2°55.71 141.2 5.9 140 11
2008-04-01 08:54:03 51°13.71 2°55.806 129.8 4.4 129 11.5
2008-04-01 08:55:03 51°13.68 2°55.892 115.9 3.1 112 8.8
2008-04-01 08:56:02 51°13.667 2°55.945 118.2 1 110 8.1